createdAt,value
2019-03-27T00:00:08.529Z,0
2019-03-27T00:01:08.541Z,0
2019-03-27T00:02:08.582Z,0
2019-03-27T00:03:08.498Z,0
2019-03-27T00:04:08.468Z,0
2019-03-27T00:05:08.480Z,0
2019-03-27T00:06:08.369Z,0
2019-03-27T00:07:08.427Z,0
2019-03-27T00:08:08.348Z,0
2019-03-27T00:09:08.055Z,0
2019-03-27T00:10:08.284Z,0
2019-03-27T00:11:08.738Z,0
2019-03-27T00:12:08.217Z,0
2019-03-27T00:13:09.435Z,0
2019-03-27T00:14:08.533Z,0
2019-03-27T00:15:21.396Z,0
2019-03-27T00:16:08.118Z,0
2019-03-27T00:17:08.091Z,0
2019-03-27T00:18:08.071Z,0
2019-03-27T00:19:08.032Z,0
2019-03-27T00:20:08.011Z,0
2019-03-27T00:21:07.977Z,0
2019-03-27T00:22:07.950Z,0
2019-03-27T00:23:07.928Z,0
2019-03-27T00:24:07.900Z,0
2019-03-27T00:25:07.875Z,0
2019-03-27T00:26:07.848Z,0
2019-03-27T00:27:07.892Z,0
2019-03-27T00:28:07.784Z,0
2019-03-27T00:29:07.759Z,0
2019-03-27T00:30:07.733Z,0
2019-03-27T00:31:07.718Z,0
2019-03-27T00:32:07.682Z,0
2019-03-27T00:33:07.662Z,0
2019-03-27T00:34:07.387Z,0
2019-03-27T00:35:07.604Z,0
2019-03-27T00:36:07.566Z,0
2019-03-27T00:37:07.548Z,0
2019-03-27T00:38:07.529Z,0
2019-03-27T00:39:07.500Z,0
2019-03-27T00:40:07.497Z,0
2019-03-27T00:41:07.449Z,0
2019-03-27T00:42:07.408Z,0
2019-03-27T00:43:07.393Z,0
2019-03-27T00:44:07.362Z,0
2019-03-27T00:45:07.404Z,0
2019-03-27T00:46:07.311Z,0
2019-03-27T00:47:07.273Z,0
2019-03-27T00:48:07.269Z,0
2019-03-27T00:49:07.232Z,0
2019-03-27T00:50:07.400Z,0
2019-03-27T00:51:07.175Z,0
2019-03-27T00:52:07.143Z,0
2019-03-27T00:53:07.181Z,0
2019-03-27T00:54:07.112Z,0
2019-03-27T00:55:07.101Z,0
2019-03-27T00:56:07.041Z,0
2019-03-27T00:57:07.012Z,0
2019-03-27T00:58:06.982Z,0
2019-03-27T00:59:06.969Z,0
2019-03-27T01:00:06.937Z,0
2019-03-27T01:01:06.979Z,0
2019-03-27T01:02:06.878Z,0
2019-03-27T01:03:06.852Z,0
2019-03-27T01:04:06.830Z,0
2019-03-27T01:05:06.796Z,0
2019-03-27T01:06:06.770Z,0
2019-03-27T01:07:06.741Z,0
2019-03-27T01:08:06.771Z,0
2019-03-27T01:09:06.686Z,0
2019-03-27T01:10:06.665Z,0
2019-03-27T01:11:06.631Z,0
2019-03-27T01:12:06.644Z,0
2019-03-27T01:13:06.602Z,0
2019-03-27T01:14:06.544Z,0
2019-03-27T01:15:06.526Z,0
2019-03-27T01:16:06.535Z,0
2019-03-27T01:17:06.486Z,0
2019-03-27T01:18:06.440Z,0
2019-03-27T01:19:06.410Z,0
2019-03-27T01:20:06.394Z,0
2019-03-27T01:21:06.387Z,0
2019-03-27T01:22:06.336Z,0
2019-03-27T01:23:06.070Z,0
2019-03-27T01:24:06.284Z,0
2019-03-27T01:25:06.255Z,0
2019-03-27T01:26:06.227Z,0
2019-03-27T01:27:06.198Z,0
2019-03-27T01:28:06.172Z,0
2019-03-27T01:29:06.174Z,0
2019-03-27T01:30:06.131Z,0
2019-03-27T01:31:06.100Z,0
2019-03-27T01:32:06.069Z,0
2019-03-27T01:33:06.037Z,0
2019-03-27T01:34:06.010Z,0
2019-03-27T01:35:06.015Z,0
2019-03-27T01:36:05.953Z,0
2019-03-27T01:37:05.925Z,0
2019-03-27T01:38:05.655Z,0
2019-03-27T01:39:05.632Z,0
2019-03-27T01:40:05.842Z,0
2019-03-27T01:41:05.588Z,0
2019-03-27T01:42:05.789Z,0
2019-03-27T01:43:05.764Z,0
2019-03-27T01:44:05.735Z,0
2019-03-27T01:45:05.709Z,0
2019-03-27T01:46:05.691Z,0
2019-03-27T01:47:05.659Z,0
2019-03-27T01:48:05.624Z,0
2019-03-27T01:49:05.683Z,0
2019-03-27T01:50:05.571Z,0
2019-03-27T01:51:05.543Z,0
2019-03-27T01:52:07.995Z,0
2019-03-27T01:53:05.489Z,0
2019-03-27T01:54:05.544Z,0
2019-03-27T01:55:05.447Z,0
2019-03-27T01:56:05.405Z,0
2019-03-27T01:57:05.378Z,0
2019-03-27T01:58:05.360Z,0
2019-03-27T01:59:05.321Z,0
2019-03-27T02:00:05.302Z,0
2019-03-27T02:01:05.279Z,0
2019-03-27T02:02:05.236Z,0
2019-03-27T02:03:05.224Z,0
2019-03-27T02:04:05.191Z,0
2019-03-27T02:05:05.007Z,0
2019-03-27T02:06:05.132Z,0
2019-03-27T02:07:05.123Z,0
2019-03-27T02:08:05.087Z,0
2019-03-27T02:09:05.062Z,0
2019-03-27T02:10:05.118Z,0
2019-03-27T02:11:05.003Z,0
2019-03-27T02:12:04.979Z,0
2019-03-27T02:13:05.141Z,0
2019-03-27T02:14:04.920Z,0
2019-03-27T02:15:05.134Z,0
2019-03-27T02:16:16.013Z,0
2019-03-27T02:17:04.843Z,0
2019-03-27T02:18:04.813Z,0
2019-03-27T02:19:04.777Z,0
2019-03-27T02:20:04.761Z,0
2019-03-27T02:21:04.735Z,0
2019-03-27T02:22:04.713Z,0
2019-03-27T02:23:04.687Z,0
2019-03-27T02:24:04.648Z,0
2019-03-27T02:25:04.617Z,0
2019-03-27T02:26:04.596Z,0
2019-03-27T02:27:04.566Z,0
2019-03-27T02:28:04.541Z,0
2019-03-27T02:29:04.526Z,0
2019-03-27T02:30:04.515Z,0
2019-03-27T02:31:04.465Z,0
2019-03-27T02:32:04.447Z,0
2019-03-27T02:33:04.525Z,0
2019-03-27T02:34:04.406Z,0
2019-03-27T02:35:04.357Z,0
2019-03-27T02:36:04.336Z,0
2019-03-27T02:37:04.325Z,0
2019-03-27T02:38:04.275Z,0
2019-03-27T02:39:04.020Z,0
2019-03-27T02:40:04.225Z,0
2019-03-27T02:41:04.189Z,0
2019-03-27T02:42:04.178Z,0
2019-03-27T02:43:04.146Z,0
2019-03-27T02:44:04.104Z,0
2019-03-27T02:45:03.980Z,0
2019-03-27T02:46:04.072Z,0
2019-03-27T02:47:03.813Z,0
2019-03-27T02:48:04.002Z,0
2019-03-27T02:49:03.989Z,0
2019-03-27T02:50:03.958Z,0
2019-03-27T02:51:04.017Z,0
2019-03-27T02:52:03.898Z,0
2019-03-27T02:53:03.877Z,0
2019-03-27T02:54:03.848Z,0
2019-03-27T02:55:03.844Z,0
2019-03-27T02:56:03.837Z,0
2019-03-27T02:57:03.524Z,0
2019-03-27T02:58:03.733Z,0
2019-03-27T02:59:03.707Z,0
2019-03-27T03:00:03.708Z,0
2019-03-27T03:01:03.653Z,0
2019-03-27T03:02:03.620Z,0
2019-03-27T03:03:03.606Z,0
2019-03-27T03:04:03.574Z,0
2019-03-27T03:05:03.538Z,0
2019-03-27T03:06:03.502Z,0
2019-03-27T03:07:03.592Z,0
2019-03-27T03:08:03.480Z,0
2019-03-27T03:09:03.429Z,0
2019-03-27T03:10:03.399Z,0
2019-03-27T03:11:03.375Z,0
2019-03-27T03:12:03.109Z,0
2019-03-27T03:13:03.327Z,0
2019-03-27T03:14:03.316Z,0
2019-03-27T03:15:03.314Z,0
2019-03-27T03:16:03.273Z,0
2019-03-27T03:17:03.328Z,0
2019-03-27T03:18:03.193Z,0
2019-03-27T03:19:03.162Z,0
2019-03-27T03:20:03.149Z,0
2019-03-27T03:21:03.100Z,0
2019-03-27T03:22:03.184Z,0
2019-03-27T03:23:03.140Z,0
2019-03-27T03:24:03.026Z,0
2019-03-27T03:25:03.060Z,0
2019-03-27T03:26:02.846Z,0
2019-03-27T03:27:02.944Z,0
2019-03-27T03:28:02.933Z,0
2019-03-27T03:29:02.890Z,0
2019-03-27T03:30:03.121Z,0
2019-03-27T03:31:02.928Z,0
2019-03-27T03:32:02.829Z,0
2019-03-27T03:33:02.812Z,0
2019-03-27T03:34:03.047Z,0
2019-03-27T03:35:03.396Z,0
2019-03-27T03:36:02.452Z,0
2019-03-27T03:37:02.669Z,0
2019-03-27T03:38:02.651Z,0
2019-03-27T03:39:02.629Z,0
2019-03-27T03:40:02.806Z,0
2019-03-27T03:41:02.562Z,0
2019-03-27T03:42:02.538Z,0
2019-03-27T03:43:02.496Z,0
2019-03-27T03:44:02.252Z,0
2019-03-27T03:45:02.767Z,0
2019-03-27T03:46:02.424Z,0
2019-03-27T03:47:09.751Z,0
2019-03-27T03:48:02.388Z,0
2019-03-27T03:49:02.376Z,0
2019-03-27T03:50:02.303Z,0
2019-03-27T03:51:02.404Z,0
2019-03-27T03:52:02.276Z,0
2019-03-27T03:53:02.242Z,0
2019-03-27T03:54:02.218Z,0
2019-03-27T03:55:02.197Z,0
2019-03-27T03:56:02.157Z,0
2019-03-27T03:57:02.115Z,0
2019-03-27T03:58:02.104Z,0
2019-03-27T03:59:02.077Z,0
2019-03-27T04:00:02.083Z,0
2019-03-27T04:01:02.036Z,0
2019-03-27T04:02:01.874Z,0
2019-03-27T04:03:01.969Z,0
2019-03-27T04:04:01.960Z,0
2019-03-27T04:05:01.908Z,0
2019-03-27T04:06:01.977Z,0
2019-03-27T04:07:01.884Z,0
2019-03-27T04:08:01.823Z,0
2019-03-27T04:09:01.790Z,0
2019-03-27T04:10:01.592Z,0
2019-03-27T04:11:01.740Z,0
2019-03-27T04:12:01.941Z,0
2019-03-27T04:13:01.455Z,0
2019-03-27T04:14:01.742Z,0
2019-03-27T04:15:01.629Z,0
2019-03-27T04:16:01.599Z,0
2019-03-27T04:17:18.636Z,0
2019-03-27T04:18:01.308Z,0
2019-03-27T04:19:01.587Z,0
2019-03-27T04:20:01.495Z,0
2019-03-27T04:21:01.233Z,0
2019-03-27T04:22:01.205Z,0
2019-03-27T04:23:01.431Z,0
2019-03-27T04:24:01.404Z,0
2019-03-27T04:25:01.348Z,0
2019-03-27T04:26:18.999Z,0
2019-03-27T04:27:01.474Z,0
2019-03-27T04:28:01.263Z,0
2019-03-27T04:29:01.243Z,0
2019-03-27T04:30:01.231Z,0
2019-03-27T04:31:01.175Z,0
2019-03-27T04:32:01.178Z,0
2019-03-27T04:33:01.149Z,0
2019-03-27T04:34:01.129Z,0
2019-03-27T04:35:01.081Z,0
2019-03-27T04:36:01.062Z,0
2019-03-27T04:37:01.180Z,0
2019-03-27T04:38:01.013Z,0
2019-03-27T04:39:00.963Z,0
2019-03-27T04:40:00.942Z,0
2019-03-27T04:41:00.910Z,0
2019-03-27T04:42:00.881Z,0
2019-03-27T04:43:00.857Z,0
2019-03-27T04:44:00.838Z,0
2019-03-27T04:45:00.567Z,0
2019-03-27T04:46:00.772Z,0
2019-03-27T04:47:00.767Z,0
2019-03-27T04:48:00.735Z,0
2019-03-27T04:49:00.793Z,0
2019-03-27T04:50:00.657Z,0
2019-03-27T04:51:00.629Z,0
2019-03-27T04:52:00.599Z,0
2019-03-27T04:53:00.586Z,0
2019-03-27T04:54:00.560Z,0
2019-03-27T04:55:00.520Z,0
2019-03-27T04:56:00.496Z,0
2019-03-27T04:57:00.469Z,0
2019-03-27T04:58:00.440Z,0
2019-03-27T04:59:00.415Z,0
2019-03-27T05:00:00.465Z,0
2019-03-27T05:01:00.372Z,0
2019-03-27T05:02:00.334Z,0
2019-03-27T05:03:00.299Z,0
2019-03-27T05:04:00.285Z,0
2019-03-27T05:05:00.382Z,0
2019-03-27T05:06:00.303Z,0
2019-03-27T05:07:00.196Z,0
2019-03-27T05:08:00.169Z,0
2019-03-27T05:09:00.136Z,0
2019-03-27T05:10:00.603Z,5
2019-03-27T05:11:00.080Z,5
2019-03-27T05:11:59.830Z,5
2019-03-27T05:13:00.029Z,5
2019-03-27T05:14:00.007Z,5
2019-03-27T05:14:59.968Z,5
2019-03-27T05:15:59.952Z,5
2019-03-27T05:16:59.913Z,5
2019-03-27T05:17:59.888Z,5
2019-03-27T05:18:59.857Z,5
2019-03-27T05:19:59.828Z,5
2019-03-27T05:20:59.810Z,5
2019-03-27T05:21:59.797Z,5
2019-03-27T05:22:59.753Z,5
2019-03-27T05:23:59.730Z,5
2019-03-27T05:24:59.695Z,5
2019-03-27T05:25:59.677Z,5
2019-03-27T05:26:59.828Z,10
2019-03-27T05:27:59.641Z,10
2019-03-27T05:28:59.585Z,10
2019-03-27T05:29:59.569Z,15
2019-03-27T05:30:59.539Z,15
2019-03-27T05:31:59.511Z,15
2019-03-27T05:32:59.512Z,15
2019-03-27T05:33:59.515Z,15
2019-03-27T05:34:59.426Z,15
2019-03-27T05:35:59.406Z,15
2019-03-27T05:36:59.376Z,15
2019-03-27T05:37:59.392Z,20
2019-03-27T05:38:59.323Z,25
2019-03-27T05:39:59.055Z,25
2019-03-27T05:40:59.262Z,30
2019-03-27T05:41:59.247Z,30
2019-03-27T05:43:10.006Z,30
2019-03-27T05:43:58.944Z,30
2019-03-27T05:44:59.161Z,25
2019-03-27T05:45:59.131Z,30
2019-03-27T05:46:59.099Z,30
2019-03-27T05:48:08.559Z,35
2019-03-27T05:48:59.062Z,35
2019-03-27T05:49:59.030Z,40
2019-03-27T05:50:58.999Z,45
2019-03-27T05:51:58.972Z,50
2019-03-27T05:52:58.957Z,55
2019-03-27T05:53:58.911Z,65
2019-03-27T05:54:58.888Z,70
2019-03-27T05:55:58.858Z,75
2019-03-27T05:56:58.597Z,75
2019-03-27T05:57:58.812Z,75
2019-03-27T05:58:58.782Z,75
2019-03-27T05:59:58.753Z,75
2019-03-27T06:00:58.776Z,70
2019-03-27T06:01:58.699Z,70
2019-03-27T06:02:58.679Z,65
2019-03-27T06:03:58.656Z,65
2019-03-27T06:04:58.627Z,65
2019-03-27T06:05:58.595Z,65
2019-03-27T06:06:58.565Z,65
2019-03-27T06:07:58.529Z,70
2019-03-27T06:08:58.507Z,75
2019-03-27T06:09:58.257Z,80
2019-03-27T06:10:58.459Z,80
2019-03-27T06:11:58.432Z,85
2019-03-27T06:12:58.412Z,90
2019-03-27T06:13:58.940Z,100
2019-03-27T06:14:58.336Z,100
2019-03-27T06:15:58.316Z,110
2019-03-27T06:16:58.299Z,110
2019-03-27T06:17:58.268Z,105
2019-03-27T06:18:58.289Z,105
2019-03-27T06:19:58.211Z,105
2019-03-27T06:20:58.183Z,110
2019-03-27T06:21:58.233Z,120
2019-03-27T06:22:58.133Z,125
2019-03-27T06:23:58.100Z,125
2019-03-27T06:24:58.073Z,125
2019-03-27T06:25:58.052Z,130
2019-03-27T06:26:58.016Z,125
2019-03-27T06:27:57.989Z,135
2019-03-27T06:28:57.958Z,160
2019-03-27T06:29:57.958Z,145
2019-03-27T06:30:57.908Z,140
2019-03-27T06:31:57.897Z,150
2019-03-27T06:32:57.858Z,155
2019-03-27T06:33:57.830Z,150
2019-03-27T06:34:57.811Z,145
2019-03-27T06:35:57.783Z,140
2019-03-27T06:36:57.750Z,150
2019-03-27T06:37:57.721Z,155
2019-03-27T06:38:57.773Z,190
2019-03-27T06:39:58.526Z,205
2019-03-27T06:40:59.524Z,205
2019-03-27T06:41:58.810Z,190
2019-03-27T06:42:57.662Z,210
2019-03-27T06:43:57.562Z,225
2019-03-27T06:44:57.540Z,245
2019-03-27T06:46:00.779Z,235
2019-03-27T06:46:57.484Z,225
2019-03-27T06:47:57.454Z,225
2019-03-27T06:48:57.440Z,225
2019-03-27T06:49:57.406Z,240
2019-03-27T06:50:57.375Z,240
2019-03-27T06:51:57.348Z,230
2019-03-27T06:52:57.523Z,225
2019-03-27T06:53:57.291Z,220
2019-03-27T06:54:57.261Z,225
2019-03-27T06:55:57.232Z,230
2019-03-27T06:56:57.316Z,245
2019-03-27T06:57:57.189Z,245
2019-03-27T06:59:03.944Z,250
2019-03-27T06:59:57.135Z,245
2019-03-27T07:00:57.121Z,240
2019-03-27T07:01:57.080Z,235
2019-03-27T07:02:57.060Z,235
2019-03-27T07:04:12.052Z,225
2019-03-27T07:04:57.011Z,220
2019-03-27T07:05:56.981Z,220
2019-03-27T07:06:56.975Z,220
2019-03-27T07:07:56.932Z,215
2019-03-27T07:08:56.895Z,225
2019-03-27T07:09:57.549Z,235
2019-03-27T07:10:56.846Z,240
2019-03-27T07:11:57.122Z,245
2019-03-27T07:12:56.794Z,250
2019-03-27T07:13:57.013Z,260
2019-03-27T07:14:56.744Z,265
2019-03-27T07:15:57.251Z,275
2019-03-27T07:16:56.696Z,285
2019-03-27T07:17:56.433Z,295
2019-03-27T07:18:57.194Z,295
2019-03-27T07:19:56.889Z,295
2019-03-27T07:20:56.597Z,295
2019-03-27T07:21:56.597Z,295
2019-03-27T07:22:56.549Z,290
2019-03-27T07:23:56.518Z,290
2019-03-27T07:24:56.483Z,295
2019-03-27T07:25:56.460Z,315
2019-03-27T07:26:56.337Z,335
2019-03-27T07:27:55.935Z,360
2019-03-27T07:28:55.918Z,375
2019-03-27T07:29:56.433Z,375
2019-03-27T07:30:56.332Z,370
2019-03-27T07:31:56.331Z,360
2019-03-27T07:32:56.305Z,355
2019-03-27T07:33:56.793Z,355
2019-03-27T07:34:58.026Z,355
2019-03-27T07:35:56.220Z,355
2019-03-27T07:36:58.388Z,365
2019-03-27T07:37:56.161Z,370
2019-03-27T07:38:55.911Z,355
2019-03-27T07:39:56.103Z,335
2019-03-27T07:40:56.088Z,320
2019-03-27T07:41:56.046Z,315
2019-03-27T07:42:56.032Z,305
2019-03-27T07:43:56.008Z,300
2019-03-27T07:44:55.991Z,305
2019-03-27T07:45:55.954Z,320
2019-03-27T07:46:55.928Z,325
2019-03-27T07:47:57.671Z,345
2019-03-27T07:49:04.582Z,385
2019-03-27T07:49:55.848Z,415
2019-03-27T07:50:55.830Z,450
2019-03-27T07:51:55.802Z,475
2019-03-27T07:52:55.772Z,505
2019-03-27T07:53:55.766Z,525
2019-03-27T07:54:55.719Z,530
2019-03-27T07:55:55.702Z,535
2019-03-27T07:56:55.672Z,540
2019-03-27T07:57:55.653Z,560
2019-03-27T07:58:55.623Z,560
2019-03-27T07:59:55.620Z,550
2019-03-27T08:00:55.696Z,525
2019-03-27T08:01:55.549Z,505
2019-03-27T08:02:55.535Z,490
2019-03-27T08:03:55.523Z,480
2019-03-27T08:04:55.472Z,465
2019-03-27T08:05:55.456Z,465
2019-03-27T08:06:55.496Z,470
2019-03-27T08:07:55.411Z,460
2019-03-27T08:08:55.377Z,460
2019-03-27T08:09:55.357Z,460
2019-03-27T08:10:55.333Z,455
2019-03-27T08:11:55.323Z,455
2019-03-27T08:12:55.297Z,475
2019-03-27T08:13:55.261Z,485
2019-03-27T08:14:55.229Z,495
2019-03-27T08:15:55.224Z,500
2019-03-27T08:16:54.951Z,495
2019-03-27T08:17:55.175Z,495
2019-03-27T08:19:06.831Z,495
2019-03-27T08:19:55.160Z,505
2019-03-27T08:20:55.087Z,540
2019-03-27T08:21:55.086Z,565
2019-03-27T08:22:55.051Z,570
2019-03-27T08:23:56.485Z,575
2019-03-27T08:24:54.998Z,575
2019-03-27T08:25:54.972Z,560
2019-03-27T08:26:54.939Z,505
2019-03-27T08:27:55.001Z,470
2019-03-27T08:28:54.896Z,445
2019-03-27T08:29:54.876Z,415
2019-03-27T08:30:54.850Z,405
2019-03-27T08:31:54.829Z,405
2019-03-27T08:32:54.802Z,410
2019-03-27T08:33:54.856Z,420
2019-03-27T08:34:54.755Z,420
2019-03-27T08:35:54.735Z,420
2019-03-27T08:36:54.713Z,420
2019-03-27T08:37:54.678Z,435
2019-03-27T08:38:54.657Z,445
2019-03-27T08:39:54.642Z,435
2019-03-27T08:40:54.654Z,435
2019-03-27T08:41:54.582Z,435
2019-03-27T08:42:54.566Z,430
2019-03-27T08:43:54.560Z,440
2019-03-27T08:44:54.513Z,460
2019-03-27T08:45:54.487Z,505
2019-03-27T08:46:54.465Z,565
2019-03-27T08:47:54.473Z,590
2019-03-27T08:48:54.426Z,565
2019-03-27T08:49:54.396Z,530
2019-03-27T08:50:54.361Z,520
2019-03-27T08:51:54.336Z,485
2019-03-27T08:52:54.320Z,470
2019-03-27T08:53:54.286Z,435
2019-03-27T08:54:54.273Z,420
2019-03-27T08:55:54.243Z,410
2019-03-27T08:56:54.220Z,420
2019-03-27T08:57:54.066Z,415
2019-03-27T08:58:54.177Z,405
2019-03-27T08:59:54.194Z,395
2019-03-27T09:00:54.220Z,405
2019-03-27T09:01:54.198Z,410
2019-03-27T09:02:54.075Z,415
2019-03-27T09:03:54.047Z,395
2019-03-27T09:04:54.116Z,385
2019-03-27T09:05:55.206Z,385
2019-03-27T09:06:53.974Z,380
2019-03-27T09:07:53.949Z,385
2019-03-27T09:08:53.933Z,375
2019-03-27T09:09:54.026Z,370
2019-03-27T09:10:53.884Z,370
2019-03-27T09:11:53.856Z,385
2019-03-27T09:12:53.912Z,405
2019-03-27T09:13:53.812Z,430
2019-03-27T09:14:53.789Z,445
2019-03-27T09:15:53.759Z,450
2019-03-27T09:16:53.609Z,465
2019-03-27T09:17:53.471Z,485
2019-03-27T09:18:53.449Z,505
2019-03-27T09:19:53.416Z,530
2019-03-27T09:20:53.744Z,540
2019-03-27T09:21:53.607Z,545
2019-03-27T09:22:53.612Z,550
2019-03-27T09:23:55.123Z,550
2019-03-27T09:24:53.607Z,560
2019-03-27T09:25:54.713Z,555
2019-03-27T09:26:53.490Z,540
2019-03-27T09:27:52.995Z,495
2019-03-27T09:28:53.437Z,440
2019-03-27T09:29:53.339Z,420
2019-03-27T09:30:53.144Z,400
2019-03-27T09:31:54.846Z,380
2019-03-27T09:32:53.338Z,395
2019-03-27T09:33:53.321Z,410
2019-03-27T09:34:53.383Z,415
2019-03-27T09:35:53.514Z,410
2019-03-27T09:36:53.249Z,385
2019-03-27T09:37:53.223Z,375
2019-03-27T09:38:53.205Z,380
2019-03-27T09:39:53.258Z,405
2019-03-27T09:40:53.150Z,430
2019-03-27T09:41:53.124Z,455
2019-03-27T09:42:53.164Z,450
2019-03-27T09:43:53.096Z,415
2019-03-27T09:44:53.051Z,420
2019-03-27T09:45:52.806Z,395
2019-03-27T09:46:53.011Z,425
2019-03-27T09:47:52.977Z,460
2019-03-27T09:48:52.950Z,460
2019-03-27T09:49:58.837Z,475
2019-03-27T09:50:52.705Z,470
2019-03-27T09:51:52.886Z,410
2019-03-27T09:52:52.858Z,380
2019-03-27T09:53:55.613Z,375
2019-03-27T09:54:52.819Z,375
2019-03-27T09:55:52.556Z,390
2019-03-27T09:56:52.388Z,415
2019-03-27T09:57:53.146Z,475
2019-03-27T09:58:52.325Z,535
2019-03-27T09:59:52.700Z,620
2019-03-27T10:00:52.792Z,695
2019-03-27T10:01:52.785Z,725
2019-03-27T10:02:52.622Z,735
2019-03-27T10:03:52.594Z,690
2019-03-27T10:04:55.770Z,620
2019-03-27T10:05:52.548Z,555
2019-03-27T10:06:52.548Z,540
2019-03-27T10:07:52.909Z,555
2019-03-27T10:08:52.324Z,565
2019-03-27T10:09:55.120Z,565
2019-03-27T10:10:52.285Z,560
2019-03-27T10:11:53.245Z,550
2019-03-27T10:12:52.398Z,550
2019-03-27T10:13:52.660Z,530
2019-03-27T10:14:54.710Z,495
2019-03-27T10:15:52.121Z,485
2019-03-27T10:16:52.143Z,465
2019-03-27T10:17:52.510Z,455
2019-03-27T10:18:54.408Z,450
2019-03-27T10:20:05.310Z,455
2019-03-27T10:20:52.198Z,475
2019-03-27T10:21:51.945Z,500
2019-03-27T10:22:52.425Z,510
2019-03-27T10:23:54.403Z,505
2019-03-27T10:24:52.117Z,510
2019-03-27T10:25:52.099Z,500
2019-03-27T10:26:52.349Z,485
2019-03-27T10:27:52.049Z,510
2019-03-27T10:28:51.801Z,545
2019-03-27T10:29:52.002Z,590
2019-03-27T10:30:51.970Z,615
2019-03-27T10:31:51.709Z,635
2019-03-27T10:32:52.047Z,655
2019-03-27T10:33:52.145Z,685
2019-03-27T10:34:51.645Z,670
2019-03-27T10:35:51.878Z,690
2019-03-27T10:36:51.840Z,655
2019-03-27T10:37:51.815Z,655
2019-03-27T10:38:51.788Z,655
2019-03-27T10:39:51.763Z,675
2019-03-27T10:40:51.768Z,680
2019-03-27T10:41:51.740Z,690
2019-03-27T10:42:51.476Z,705
2019-03-27T10:43:51.675Z,705
2019-03-27T10:44:51.663Z,665
2019-03-27T10:45:51.653Z,655
2019-03-27T10:46:51.687Z,605
2019-03-27T10:47:51.596Z,590
2019-03-27T10:49:01.831Z,570
2019-03-27T10:49:51.550Z,565
2019-03-27T10:50:51.286Z,545
2019-03-27T10:51:51.499Z,535
2019-03-27T10:52:51.257Z,525
2019-03-27T10:53:51.456Z,515
2019-03-27T10:54:51.206Z,510
2019-03-27T10:55:51.418Z,510
2019-03-27T10:56:51.400Z,520
2019-03-27T10:57:51.366Z,520
2019-03-27T10:58:51.358Z,510
2019-03-27T10:59:51.350Z,500
2019-03-27T11:00:51.304Z,500
2019-03-27T11:01:51.279Z,505
2019-03-27T11:02:51.264Z,525
2019-03-27T11:03:51.242Z,525
2019-03-27T11:04:50.983Z,550
2019-03-27T11:05:51.199Z,600
2019-03-27T11:06:51.214Z,645
2019-03-27T11:07:51.177Z,700
2019-03-27T11:08:51.131Z,755
2019-03-27T11:09:50.864Z,820
2019-03-27T11:10:51.080Z,835
2019-03-27T11:11:51.055Z,835
2019-03-27T11:12:51.039Z,870
2019-03-27T11:13:51.181Z,915
2019-03-27T11:14:51.217Z,950
2019-03-27T11:15:50.727Z,975
2019-03-27T11:16:50.972Z,970
2019-03-27T11:17:50.946Z,990
2019-03-27T11:18:50.919Z,990
2019-03-27T11:19:50.650Z,985
2019-03-27T11:20:50.865Z,1000
2019-03-27T11:21:50.844Z,1035
2019-03-27T11:22:50.827Z,1050
2019-03-27T11:23:50.808Z,1065
2019-03-27T11:24:50.785Z,1040
2019-03-27T11:25:50.756Z,1070
2019-03-27T11:26:50.759Z,1075
2019-03-27T11:27:50.755Z,1065
2019-03-27T11:28:50.706Z,1075
2019-03-27T11:29:50.684Z,1060
2019-03-27T11:32:52.852Z,955
2019-03-27T11:33:02.600Z,950
2019-03-27T11:34:02.586Z,935
2019-03-27T11:35:02.821Z,940
2019-03-27T11:36:02.547Z,940
2019-03-27T11:37:02.521Z,945
2019-03-27T11:38:02.493Z,985
2019-03-27T11:39:02.473Z,1015
2019-03-27T11:40:02.586Z,945
2019-03-27T11:41:02.452Z,865
2019-03-27T11:42:05.540Z,845
2019-03-27T11:43:02.411Z,830
2019-03-27T11:44:04.609Z,820
2019-03-27T11:45:02.359Z,820
2019-03-27T11:46:02.358Z,780
2019-03-27T11:47:02.333Z,730
2019-03-27T11:48:02.317Z,690
2019-03-27T11:49:02.292Z,680
2019-03-27T11:50:02.272Z,675
2019-03-27T11:51:02.021Z,665
2019-03-27T11:52:02.000Z,680
2019-03-27T11:53:02.302Z,690
2019-03-27T11:54:02.207Z,715
2019-03-27T11:55:02.187Z,725
2019-03-27T11:56:05.663Z,745
2019-03-27T11:57:02.160Z,780
2019-03-27T11:58:02.137Z,840
2019-03-27T11:59:02.118Z,875
2019-03-27T12:00:03.672Z,895
2019-03-27T12:01:04.148Z,925
2019-03-27T12:02:02.066Z,945
2019-03-27T12:03:02.042Z,940
2019-03-27T12:04:02.019Z,905
2019-03-27T12:05:02.002Z,900
2019-03-27T12:06:01.750Z,860
2019-03-27T12:07:02.025Z,810
2019-03-27T12:08:01.949Z,775
2019-03-27T12:09:01.932Z,730
2019-03-27T12:10:01.911Z,725
2019-03-27T12:11:01.882Z,725
2019-03-27T12:12:01.658Z,745
2019-03-27T12:13:02.531Z,770
2019-03-27T12:14:01.630Z,820
2019-03-27T12:15:01.840Z,845
2019-03-27T12:16:01.801Z,890
2019-03-27T12:17:01.769Z,940
2019-03-27T12:18:01.748Z,1010
2019-03-27T12:19:01.747Z,1090
2019-03-27T12:20:01.718Z,1095
2019-03-27T12:21:08.886Z,1030
2019-03-27T12:22:04.307Z,980
2019-03-27T12:23:07.204Z,945
2019-03-27T12:24:01.638Z,915
2019-03-27T12:25:01.630Z,890
2019-03-27T12:26:04.659Z,845
2019-03-27T12:27:01.598Z,815
2019-03-27T12:28:01.561Z,790
2019-03-27T12:29:01.552Z,780
2019-03-27T12:30:01.534Z,775
2019-03-27T12:31:01.400Z,780
2019-03-27T12:32:01.513Z,790
2019-03-27T12:33:01.317Z,815
2019-03-27T12:34:01.469Z,840
2019-03-27T12:35:01.443Z,840
2019-03-27T12:36:01.191Z,835
2019-03-27T12:37:01.408Z,815
2019-03-27T12:38:04.234Z,810
2019-03-27T12:39:01.375Z,800
2019-03-27T12:40:01.349Z,800
2019-03-27T12:41:01.096Z,800
2019-03-27T12:42:01.319Z,820
2019-03-27T12:43:01.288Z,830
2019-03-27T12:44:02.626Z,820
2019-03-27T12:45:04.323Z,810
2019-03-27T12:46:01.004Z,805
2019-03-27T12:47:01.511Z,780
2019-03-27T12:48:01.203Z,795
2019-03-27T12:49:01.182Z,790
2019-03-27T12:50:01.503Z,765
2019-03-27T12:51:14.405Z,740
2019-03-27T12:52:01.121Z,725
2019-03-27T12:53:01.109Z,690
2019-03-27T12:54:01.099Z,660
2019-03-27T12:55:01.067Z,640
2019-03-27T12:56:00.809Z,630
2019-03-27T12:57:01.026Z,625
2019-03-27T12:58:01.010Z,640
2019-03-27T12:59:00.990Z,670
2019-03-27T13:00:01.023Z,690
2019-03-27T13:01:00.956Z,710
2019-03-27T13:02:00.948Z,740
2019-03-27T13:03:00.678Z,760
2019-03-27T13:04:00.905Z,760
2019-03-27T13:05:00.644Z,735
2019-03-27T13:06:00.866Z,730
2019-03-27T13:07:00.845Z,745
2019-03-27T13:08:00.818Z,760
2019-03-27T13:09:00.802Z,765
2019-03-27T13:10:00.907Z,770
2019-03-27T13:11:01.309Z,785
2019-03-27T13:12:00.744Z,820
2019-03-27T13:13:00.732Z,810
2019-03-27T13:14:00.725Z,810
2019-03-27T13:15:00.687Z,840
2019-03-27T13:16:01.126Z,840
2019-03-27T13:17:01.893Z,795
2019-03-27T13:18:00.631Z,780
2019-03-27T13:19:01.819Z,790
2019-03-27T13:20:00.493Z,810
2019-03-27T13:21:00.686Z,825
2019-03-27T13:22:00.564Z,820
2019-03-27T13:23:01.485Z,780
2019-03-27T13:24:02.576Z,700
2019-03-27T13:25:00.494Z,655
2019-03-27T13:26:00.488Z,655
2019-03-27T13:27:00.463Z,680
2019-03-27T13:28:00.450Z,670
2019-03-27T13:29:00.436Z,670
2019-03-27T13:30:00.427Z,675
2019-03-27T13:31:00.390Z,665
2019-03-27T13:32:00.364Z,655
2019-03-27T13:33:00.359Z,645
2019-03-27T13:34:00.332Z,640
2019-03-27T13:35:00.332Z,665
2019-03-27T13:36:00.295Z,675
2019-03-27T13:37:00.278Z,675
2019-03-27T13:38:00.270Z,645
2019-03-27T13:39:00.346Z,655
2019-03-27T13:40:02.341Z,660
2019-03-27T13:41:00.202Z,655
2019-03-27T13:42:00.191Z,670
2019-03-27T13:43:00.194Z,695
2019-03-27T13:44:00.212Z,705
2019-03-27T13:45:00.353Z,725
2019-03-27T13:46:00.099Z,735
2019-03-27T13:47:00.594Z,775
2019-03-27T13:48:00.060Z,765
2019-03-27T13:49:00.051Z,770
2019-03-27T13:50:00.014Z,810
2019-03-27T13:51:00.017Z,790
2019-03-27T13:52:00.557Z,765
2019-03-27T13:53:00.055Z,745
2019-03-27T13:53:59.958Z,705
2019-03-27T13:54:59.695Z,670
2019-03-27T13:55:59.906Z,660
2019-03-27T13:56:59.897Z,650
2019-03-27T13:57:59.880Z,630
2019-03-27T13:58:59.851Z,600
2019-03-27T13:59:59.838Z,580
2019-03-27T14:00:59.816Z,570
2019-03-27T14:01:59.874Z,555
2019-03-27T14:02:59.781Z,535
2019-03-27T14:03:59.761Z,510
2019-03-27T14:04:59.739Z,500
2019-03-27T14:05:59.725Z,495
2019-03-27T14:06:59.730Z,485
2019-03-27T14:07:59.791Z,480
2019-03-27T14:08:59.767Z,475
2019-03-27T14:09:59.644Z,475